Time;durP1;ratioP1;P1;durP2;ratioP2;P2;SDS_P1;SDS_P2;PMS_P1;PMS_P2;Temp;Humidity;BMP_temperature;BMP_pressure;BME280_temperature;BME280_humidity;BME280_pressure;Samples;Min_cycle;Max_cycle;Signal;HPM_P1;HPM_P2
2022/04/15 00:02:03;;;;;;;23.70;15.25;;;28.30;82.80;;;;;;5145411;28;20056;-58
2022/04/15 00:04:30;;;;;;;19.40;15.20;;;28.30;82.70;;;;;;5143952;28;20023;-54
2022/04/15 00:06:57;;;;;;;19.52;14.05;;;28.30;82.70;;;;;;5145859;28;20023;-57
2022/04/15 00:09:24;;;;;;;20.58;14.40;;;28.30;82.60;;;;;;5145234;28;20083;-59
2022/04/15 00:11:53;;;;;;;20.35;14.98;;;28.30;82.50;;;;;;5145655;28;20023;-58
2022/04/15 00:14:20;;;;;;;22.60;15.07;;;28.30;82.50;;;;;;5144841;28;20031;-56
2022/04/15 00:16:46;;;;;;;24.33;14.95;;;28.20;82.30;;;;;;5144785;28;20025;-54
2022/04/15 00:19:13;;;;;;;33.28;14.75;;;28.20;82.40;;;;;;5144867;28;20019;-59
2022/04/15 00:21:41;;;;;;;29.92;15.10;;;28.20;82.40;;;;;;5144853;28;20338;-58
2022/04/15 00:24:07;;;;;;;36.30;15.13;;;28.20;82.20;;;;;;5137744;28;20020;-56
2022/04/15 00:26:34;;;;;;;41.20;15.90;;;28.20;82.30;;;;;;5126648;28;20069;-56
2022/04/15 00:29:03;;;;;;;24.63;16.58;;;28.10;82.30;;;;;;5148913;27;20204;-55
2022/04/15 00:31:29;;;;;;;36.13;16.88;;;28.10;82.70;;;;;;5142707;27;20015;-51
2022/04/15 00:33:56;;;;;;;33.20;17.50;;;28.10;82.70;;;;;;5146587;27;20018;-55
2022/04/15 00:36:22;;;;;;;28.95;16.48;;;28.00;82.90;;;;;;5141866;27;20031;-53
2022/04/15 00:38:49;;;;;;;26.52;16.13;;;28.00;83.20;;;;;;5134343;27;20202;-55
2022/04/15 00:41:16;;;;;;;23.70;15.13;;;27.90;83.40;;;;;;5129191;27;20023;-55
2022/04/15 00:43:43;;;;;;;24.20;16.40;;;27.90;83.50;;;;;;5146419;27;20031;-62
2022/04/15 00:46:11;;;;;;;26.65;15.20;;;27.90;83.40;;;;;;5134202;27;20020;-62
2022/04/15 00:49:07;;;;;;;25.88;15.77;;;27.80;82.90;;;;;;5115510;27;20421;-52
2022/04/15 00:51:36;;;;;;;25.52;16.00;;;27.80;83.50;;;;;;5101453;28;20087;-53
2022/04/15 00:54:03;;;;;;;22.55;15.75;;;27.80;83.90;;;;;;5095632;28;20313;-51
2022/04/15 00:56:35;;;;;;;21.83;15.07;;;27.70;83.30;;;;;;5101242;28;20062;-49
2022/04/15 00:59:04;;;;;;;23.77;15.02;;;27.60;83.40;;;;;;5101235;28;20094;-56
2022/04/15 01:01:32;;;;;;;24.90;14.77;;;27.50;83.50;;;;;;5101073;28;20017;-56
2022/04/15 01:04:03;;;;;;;56.63;18.30;;;27.60;83.40;;;;;;5101249;28;20031;-64
2022/04/15 01:06:32;;;;;;;27.95;15.00;;;27.50;83.20;;;;;;5101359;28;20099;-57
2022/04/15 01:09:00;;;;;;;22.17;13.88;;;27.50;83.20;;;;;;5100407;28;20037;-59
2022/04/15 01:11:28;;;;;;;24.42;14.77;;;27.50;83.00;;;;;;5116080;28;20048;-53
2022/04/15 01:13:59;;;;;;;21.63;14.45;;;27.60;82.80;;;;;;5105970;28;20040;-50
2022/04/15 01:16:27;;;;;;;25.42;14.55;;;27.50;83.10;;;;;;5100816;28;20312;-58
2022/04/15 01:18:53;;;;;;;18.77;14.75;;;27.50;82.90;;;;;;5101016;28;20174;-53
2022/04/15 01:21:25;;;;;;;28.55;15.20;;;27.50;82.30;;;;;;5101019;28;20032;-48
2022/04/15 01:23:54;;;;;;;24.73;14.85;;;27.50;82.30;;;;;;5101359;28;20028;-46
2022/04/15 01:26:21;;;;;;;20.48;13.85;;;27.50;82.30;;;;;;5101055;28;20070;-44
2022/04/15 01:28:47;;;;;;;21.92;14.60;;;27.50;82.30;;;;;;5100014;28;20042;-46
2022/04/15 01:31:14;;;;;;;24.40;14.40;;;27.60;82.20;;;;;;5099766;28;20036;-52
2022/04/15 01:33:41;;;;;;;25.23;14.60;;;27.60;81.80;;;;;;5100468;28;20077;-44
2022/04/15 01:36:07;;;;;;;19.90;14.18;;;27.60;81.90;;;;;;5100808;28;20020;-50
2022/04/15 01:38:34;;;;;;;22.13;14.93;;;27.70;81.90;;;;;;5100962;28;20028;-45
2022/04/15 01:41:01;;;;;;;19.73;14.40;;;27.70;81.90;;;;;;5098920;28;20028;-45
2022/04/15 01:43:27;;;;;;;22.60;14.52;;;27.70;81.70;;;;;;5099555;28;20042;-47
2022/04/15 01:45:54;;;;;;;23.85;14.60;;;27.60;81.30;;;;;;5100219;28;20024;-51
2022/04/15 01:48:21;;;;;;;23.30;13.98;;;27.60;81.20;;;;;;5093635;28;20210;-42
2022/04/15 01:50:47;;;;;;;22.13;14.55;;;27.60;81.30;;;;;;5095103;28;20028;-45
2022/04/15 01:53:14;;;;;;;20.98;14.13;;;27.50;81.80;;;;;;5080167;28;20317;-43
2022/04/15 01:55:41;;;;;;;20.05;13.82;;;27.50;81.30;;;;;;5080016;28;20035;-46
2022/04/15 01:58:07;;;;;;;17.00;12.88;;;27.50;81.00;;;;;;5079968;28;20040;-48
2022/04/15 02:00:34;;;;;;;20.95;14.40;;;27.50;80.80;;;;;;5065917;28;20061;-47
2022/04/15 02:03:00;;;;;;;25.20;13.77;;;27.50;80.70;;;;;;5066888;28;20092;-44
2022/04/15 02:05:27;;;;;;;22.85;13.88;;;27.40;80.90;;;;;;5066468;28;20024;-50
2022/04/15 02:07:53;;;;;;;24.65;13.88;;;27.40;80.80;;;;;;5065641;28;20091;-43
2022/04/15 02:10:22;;;;;;;17.92;13.57;;;27.50;80.60;;;;;;5066094;28;20320;-53
2022/04/15 02:12:48;;;;;;;25.55;13.55;;;27.40;80.80;;;;;;5066766;28;20043;-44
2022/04/15 02:15:16;;;;;;;21.92;13.75;;;27.40;80.50;;;;;;5066200;28;20021;-44
2022/04/15 02:17:43;;;;;;;21.95;14.32;;;27.50;80.80;;;;;;5066289;28;20044;-47
2022/04/15 02:20:11;;;;;;;21.55;13.88;;;27.40;80.60;;;;;;5066253;28;20370;-44
2022/04/15 02:22:38;;;;;;;19.05;13.57;;;27.40;80.10;;;;;;5073265;28;20028;-44
2022/04/15 02:25:05;;;;;;;22.95;14.13;;;27.40;79.90;;;;;;5071691;28;20043;-44
2022/04/15 02:27:32;;;;;;;22.70;13.90;;;27.40;80.10;;;;;;5066237;28;20036;-52
2022/04/15 02:29:58;;;;;;;18.42;13.85;;;27.40;80.00;;;;;;5065971;28;20017;-52
2022/04/15 02:32:25;;;;;;;19.48;13.45;;;27.40;79.50;;;;;;5066411;28;20102;-57
2022/04/15 02:34:52;;;;;;;19.85;13.40;;;27.40;80.00;;;;;;5065996;28;20339;-45
2022/04/15 02:37:18;;;;;;;26.55;13.63;;;27.40;79.30;;;;;;5065955;28;20078;-45
2022/04/15 02:39:46;;;;;;;19.00;13.15;;;27.30;79.50;;;;;;5065900;28;20033;-52
2022/04/15 02:42:13;;;;;;;20.05;13.52;;;27.40;79.50;;;;;;5066118;28;20059;-52
2022/04/15 02:44:40;;;;;;;23.08;15.25;;;27.40;79.60;;;;;;5065662;28;20083;-43
2022/04/15 02:47:08;;;;;;;27.55;20.88;;;27.30;79.40;;;;;;5065545;28;20033;-47
2022/04/15 02:49:35;;;;;;;35.80;24.05;;;27.30;79.20;;;;;;5069697;28;20066;-52
2022/04/15 02:52:01;;;;;;;42.35;25.70;;;27.40;79.20;;;;;;5091196;28;20040;-47
2022/04/15 02:54:28;;;;;;;29.95;19.20;;;27.40;79.20;;;;;;5085926;28;20016;-45
2022/04/15 02:56:55;;;;;;;26.05;15.25;;;27.40;78.40;;;;;;5084548;28;20020;-49
2022/04/15 02:59:21;;;;;;;20.25;14.15;;;27.30;78.50;;;;;;5084568;28;20213;-51
2022/04/15 03:01:49;;;;;;;36.50;15.65;;;27.20;79.30;;;;;;5085587;28;20020;-46
2022/04/15 03:04:16;;;;;;;28.40;14.63;;;27.20;80.10;;;;;;5085174;28;20020;-50
2022/04/15 03:06:42;;;;;;;36.70;16.75;;;27.20;79.90;;;;;;5084918;28;20325;-60
2022/04/15 03:09:09;;;;;;;26.08;13.65;;;27.30;79.40;;;;;;5080745;28;20263;-42
2022/04/15 03:11:38;;;;;;;26.63;14.40;;;27.30;78.80;;;;;;5073068;28;20048;-41
2022/04/15 03:14:05;;;;;;;24.67;14.73;;;27.40;79.00;;;;;;5086364;28;20062;-41
2022/04/15 03:16:34;;;;;;;21.85;14.30;;;27.40;79.10;;;;;;5097801;28;20015;-48
2022/04/15 03:19:02;;;;;;;21.55;14.20;;;27.40;79.10;;;;;;5100408;28;20028;-47
2022/04/15 03:21:29;;;;;;;22.05;13.27;;;27.40;79.20;;;;;;5096050;28;20027;-48
2022/04/15 03:23:56;;;;;;;20.27;13.25;;;27.40;79.00;;;;;;5084689;28;20029;-45
2022/04/15 03:26:23;;;;;;;26.00;14.27;;;27.40;79.00;;;;;;5084438;28;20073;-46
2022/04/15 03:28:50;;;;;;;23.52;12.55;;;27.40;79.00;;;;;;5084923;28;20035;-48
2022/04/15 03:31:17;;;;;;;21.15;13.25;;;27.40;78.80;;;;;;5084925;28;20025;-45
2022/04/15 03:33:44;;;;;;;19.63;12.68;;;27.40;78.70;;;;;;5085378;28;20032;-46
2022/04/15 03:36:10;;;;;;;22.58;13.35;;;27.40;78.60;;;;;;5084862;28;20028;-44
2022/04/15 03:38:37;;;;;;;17.90;12.48;;;27.40;78.40;;;;;;5085107;28;20028;-43
2022/04/15 03:41:04;;;;;;;15.00;12.00;;;27.30;78.30;;;;;;5084777;28;20046;-48
2022/04/15 03:43:32;;;;;;;20.15;13.02;;;27.40;78.10;;;;;;5080411;28;20091;-42
2022/04/15 03:45:58;;;;;;;20.02;12.75;;;27.30;78.10;;;;;;5075654;28;20025;-49
2022/04/15 03:48:25;;;;;;;15.73;11.30;;;27.30;78.00;;;;;;5084345;28;20041;-45
2022/04/15 03:50:55;;;;;;;18.08;12.18;;;27.30;77.90;;;;;;5084609;28;20059;-42
2022/04/15 03:53:22;;;;;;;20.75;11.68;;;27.30;77.80;;;;;;5084822;28;20020;-51
2022/04/15 03:55:51;;;;;;;20.42;12.45;;;27.30;77.90;;;;;;5084375;28;20047;-43
2022/04/15 03:58:17;;;;;;;19.65;12.70;;;27.30;78.00;;;;;;5084584;28;20095;-45
2022/04/15 04:00:44;;;;;;;18.75;12.35;;;27.30;78.00;;;;;;5084417;28;20024;-49
2022/04/15 04:03:12;;;;;;;17.38;11.85;;;27.30;78.10;;;;;;5083886;28;20216;-44
2022/04/15 04:05:39;;;;;;;18.63;12.00;;;27.30;78.30;;;;;;5084232;28;20042;-52
2022/04/15 04:08:06;;;;;;;18.58;11.82;;;27.30;78.20;;;;;;5084547;28;20078;-42
2022/04/15 04:10:33;;;;;;;17.45;12.00;;;27.30;78.10;;;;;;5084199;28;20328;-42
2022/04/15 04:13:02;;;;;;;17.15;11.95;;;27.30;77.90;;;;;;5084487;28;20032;-45
2022/04/15 04:15:30;;;;;;;31.10;11.73;;;27.30;77.90;;;;;;5083945;28;20225;-56
2022/04/15 04:17:57;;;;;;;16.15;11.45;;;27.30;78.20;;;;;;5084110;28;20036;-57
2022/04/15 04:20:24;;;;;;;15.27;11.85;;;27.30;77.90;;;;;;5084067;28;20037;-57
2022/04/15 04:22:51;;;;;;;20.27;12.10;;;27.40;77.80;;;;;;5082092;28;20032;-54
2022/04/15 04:25:17;;;;;;;18.00;11.95;;;27.40;77.90;;;;;;5081456;28;20027;-57
2022/04/15 04:27:44;;;;;;;19.27;11.70;;;27.40;77.70;;;;;;5082276;28;20033;-58
2022/04/15 04:30:15;;;;;;;17.13;11.38;;;27.40;77.80;;;;;;5082453;28;20402;-57
2022/04/15 04:32:49;;;;;;;18.52;10.95;;;27.40;77.70;;;;;;5083007;28;20029;-61
2022/04/15 04:35:17;;;;;;;20.85;12.30;;;27.30;77.70;;;;;;5082584;28;20024;-59
2022/04/15 04:37:44;;;;;;;19.08;11.63;;;27.30;77.60;;;;;;5081859;28;20042;-56
2022/04/15 04:40:12;;;;;;;15.20;11.07;;;27.30;77.60;;;;;;5082379;28;20359;-57
2022/04/15 04:42:40;;;;;;;15.90;10.77;;;27.30;77.70;;;;;;5082333;28;20021;-57
2022/04/15 04:45:10;;;;;;;22.25;11.30;;;27.30;77.70;;;;;;5082487;28;20036;-61
2022/04/15 04:47:40;;;;;;;18.77;11.30;;;27.40;77.80;;;;;;5082070;28;20044;-54
2022/04/15 04:50:11;;;;;;;20.63;11.25;;;27.30;77.60;;;;;;5082200;28;20074;-55
2022/04/15 04:52:39;;;;;;;13.48;10.43;;;27.30;77.50;;;;;;5077550;28;20040;-60
2022/04/15 04:55:07;;;;;;;14.73;10.63;;;27.30;77.60;;;;;;5068838;28;20021;-55
2022/04/15 04:57:34;;;;;;;18.33;11.63;;;27.30;77.70;;;;;;5087059;28;20030;-55
2022/04/15 05:00:01;;;;;;;17.15;11.20;;;27.30;77.80;;;;;;5089911;28;20032;-57
2022/04/15 05:02:28;;;;;;;13.85;11.88;;;27.30;77.70;;;;;;5092414;28;20039;-57
2022/04/15 05:04:54;;;;;;;14.07;10.75;;;27.30;77.70;;;;;;5081859;28;20032;-58
2022/04/15 05:07:21;;;;;;;17.05;10.73;;;27.30;77.70;;;;;;5081978;28;20025;-58
2022/04/15 05:09:47;;;;;;;19.40;11.75;;;27.30;77.60;;;;;;5081963;28;20248;-58
2022/04/15 05:12:14;;;;;;;16.25;11.50;;;27.30;77.80;;;;;;5081877;28;20077;-59
2022/04/15 05:14:41;;;;;;;15.90;11.50;;;27.30;77.80;;;;;;5081857;28;20023;-58
2022/04/15 05:17:07;;;;;;;19.80;11.68;;;27.30;77.80;;;;;;5081956;28;20024;-59
2022/04/15 05:19:34;;;;;;;17.77;11.48;;;27.30;77.70;;;;;;5082453;28;20091;-59
2022/04/15 05:22:00;;;;;;;15.10;11.18;;;27.30;77.90;;;;;;5083614;28;20032;-57
2022/04/15 05:24:27;;;;;;;19.00;11.77;;;27.30;77.80;;;;;;5083682;28;20043;-59
2022/04/15 05:26:54;;;;;;;18.60;11.50;;;27.30;77.60;;;;;;5083267;28;20037;-59
2022/04/15 05:29:21;;;;;;;20.08;11.68;;;27.30;77.70;;;;;;5083464;28;20059;-57
2022/04/15 05:31:48;;;;;;;21.85;12.30;;;27.30;77.60;;;;;;5083384;28;20023;-56
2022/04/15 05:34:14;;;;;;;14.55;11.02;;;27.30;77.90;;;;;;5084940;28;20134;-57
2022/04/15 05:36:41;;;;;;;18.90;11.82;;;27.30;77.90;;;;;;5087200;28;20046;-58
2022/04/15 05:39:08;;;;;;;17.23;11.57;;;27.30;77.90;;;;;;5087099;28;20304;-59
2022/04/15 05:41:34;;;;;;;21.23;11.80;;;27.30;77.90;;;;;;5086319;28;20032;-58
2022/04/15 05:44:03;;;;;;;21.40;12.13;;;27.30;77.80;;;;;;5087026;28;20020;-59
2022/04/15 05:46:31;;;;;;;18.05;11.80;;;27.30;77.80;;;;;;5086997;28;20197;-59
2022/04/15 05:48:57;;;;;;;16.55;10.93;;;27.30;77.80;;;;;;5086674;28;20287;-59
2022/04/15 05:51:24;;;;;;;22.67;11.80;;;27.30;77.70;;;;;;5087379;28;20187;-54
2022/04/15 05:53:51;;;;;;;19.83;11.65;;;27.30;77.90;;;;;;5087449;28;20304;-55
2022/04/15 05:56:17;;;;;;;19.50;11.38;;;27.30;77.70;;;;;;5086734;28;20020;-57
2022/04/15 05:58:44;;;;;;;20.38;11.55;;;27.30;77.70;;;;;;5087339;28;20044;-55
2022/04/15 06:01:10;;;;;;;20.27;12.30;;;27.30;77.60;;;;;;5086790;28;20048;-56
2022/04/15 06:03:37;;;;;;;18.35;11.77;;;27.30;77.90;;;;;;5087036;28;20104;-57
2022/04/15 06:06:05;;;;;;;18.48;10.93;;;27.30;77.60;;;;;;5086545;28;20025;-55
2022/04/15 06:08:32;;;;;;;19.33;12.15;;;27.20;77.50;;;;;;5087079;28;20029;-58
2022/04/15 06:11:00;;;;;;;16.77;10.70;;;27.30;77.60;;;;;;5086712;28;20039;-58
2022/04/15 06:13:26;;;;;;;18.20;11.48;;;27.20;77.90;;;;;;5087209;28;20031;-59
2022/04/15 06:15:55;;;;;;;14.68;10.30;;;27.30;77.50;;;;;;5086721;28;20282;-58
2022/04/15 06:18:23;;;;;;;17.70;11.15;;;27.20;77.40;;;;;;5086152;28;20036;-59
2022/04/15 06:20:51;;;;;;;22.48;11.40;;;27.20;77.50;;;;;;5086637;28;20016;-60
2022/04/15 06:23:19;;;;;;;19.83;11.02;;;27.20;77.60;;;;;;5086791;28;20032;-57
2022/04/15 06:25:46;;;;;;;16.15;11.20;;;27.20;77.70;;;;;;5086259;28;20087;-59
2022/04/15 06:28:13;;;;;;;19.52;11.68;;;27.20;77.90;;;;;;5086965;28;20100;-56
2022/04/15 06:30:40;;;;;;;17.98;11.70;;;27.20;78.20;;;;;;5086260;28;20028;-56
2022/04/15 06:33:08;;;;;;;17.60;11.15;;;27.20;78.00;;;;;;5086565;28;20032;-57
2022/04/15 06:35:36;;;;;;;17.00;10.98;;;27.20;78.10;;;;;;5085989;28;20025;-58
2022/04/15 06:38:03;;;;;;;20.85;12.23;;;27.20;78.80;;;;;;5086637;28;20315;-57
2022/04/15 06:40:29;;;;;;;20.05;12.32;;;27.20;78.50;;;;;;5086057;28;20036;-55
2022/04/15 06:42:56;;;;;;;21.55;11.38;;;27.20;78.60;;;;;;5086423;28;20297;-57
2022/04/15 06:45:23;;;;;;;21.65;12.02;;;27.20;78.80;;;;;;5086048;28;20354;-56
2022/04/15 06:47:49;;;;;;;19.90;12.00;;;27.20;78.90;;;;;;5085732;28;20040;-57
2022/04/15 06:50:16;;;;;;;19.08;11.15;;;27.20;79.00;;;;;;5086297;28;20076;-56
2022/04/15 06:52:42;;;;;;;18.90;11.48;;;27.20;79.10;;;;;;5086074;28;20021;-57
2022/04/15 06:55:09;;;;;;;18.98;12.05;;;27.20;79.20;;;;;;5085815;28;20036;-54
2022/04/15 06:57:35;;;;;;;17.17;11.43;;;27.20;79.30;;;;;;5085919;28;20092;-56
2022/04/15 07:00:04;;;;;;;18.20;12.55;;;27.20;79.30;;;;;;5086065;28;20243;-56
2022/04/15 07:02:30;;;;;;;22.23;12.77;;;27.20;79.50;;;;;;5085596;28;20108;-57
2022/04/15 07:04:57;;;;;;;17.88;11.23;;;27.20;79.60;;;;;;5085699;28;20025;-55
2022/04/15 07:07:24;;;;;;;21.83;12.50;;;27.30;79.80;;;;;;5085823;28;20032;-57
2022/04/15 07:09:50;;;;;;;19.27;12.13;;;27.20;79.90;;;;;;5085661;28;20028;-60
2022/04/15 07:12:17;;;;;;;21.10;11.82;;;27.20;80.00;;;;;;5085627;28;20288;-59
2022/04/15 07:14:44;;;;;;;21.08;11.85;;;27.20;80.10;;;;;;5085419;28;20165;-59
2022/04/15 07:17:11;;;;;;;21.13;12.27;;;27.20;80.30;;;;;;5085573;28;20104;-57
2022/04/15 07:19:38;;;;;;;22.27;12.18;;;27.30;80.50;;;;;;5085404;28;20080;-62
2022/04/15 07:22:08;;;;;;;18.15;11.25;;;27.20;80.40;;;;;;5085555;28;20026;-57
2022/04/15 07:24:34;;;;;;;19.83;11.43;;;27.20;80.40;;;;;;5085566;28;20198;-56
2022/04/15 07:27:02;;;;;;;18.63;11.60;;;27.20;80.40;;;;;;5085199;28;20032;-58
2022/04/15 07:29:30;;;;;;;22.35;11.07;;;27.30;80.50;;;;;;5085418;28;20453;-58
2022/04/15 07:31:57;;;;;;;22.90;11.23;;;27.30;80.40;;;;;;5085208;28;20033;-60
2022/04/15 07:34:26;;;;;;;18.65;10.73;;;27.30;80.60;;;;;;5085058;28;20050;-58
2022/04/15 07:36:57;;;;;;;20.52;11.73;;;27.30;80.60;;;;;;5085066;28;20021;-61
2022/04/15 07:39:24;;;;;;;21.95;11.48;;;27.30;80.60;;;;;;5084611;28;20039;-57
2022/04/15 07:41:52;;;;;;;19.15;11.07;;;27.30;80.80;;;;;;5084876;28;20043;-57
2022/04/15 07:44:19;;;;;;;18.33;11.25;;;27.20;81.00;;;;;;5085175;28;20257;-58
2022/04/15 07:46:47;;;;;;;17.88;10.63;;;27.20;81.10;;;;;;5084675;28;20032;-57
2022/04/15 07:49:15;;;;;;;18.38;10.55;;;27.30;81.20;;;;;;5084875;28;20043;-56
2022/04/15 07:51:42;;;;;;;18.77;11.13;;;27.20;82.00;;;;;;5085034;28;20016;-56
2022/04/15 07:54:09;;;;;;;18.83;10.90;;;27.20;81.60;;;;;;5084845;28;20336;-55
2022/04/15 07:56:36;;;;;;;18.17;10.98;;;27.20;81.60;;;;;;5084038;28;20013;-58
2022/04/15 07:59:04;;;;;;;18.92;11.07;;;27.20;81.70;;;;;;5084609;28;20032;-56
2022/04/15 08:01:31;;;;;;;17.92;10.88;;;27.20;81.90;;;;;;5084265;28;20073;-56
2022/04/15 08:03:59;;;;;;;21.40;11.50;;;27.20;81.90;;;;;;5084904;28;20025;-56
2022/04/15 08:06:28;;;;;;;18.30;11.10;;;27.20;81.90;;;;;;5084753;28;20038;-56
2022/04/15 08:08:56;;;;;;;19.60;11.13;;;27.20;81.90;;;;;;5084141;28;20041;-54
2022/04/15 08:11:25;;;;;;;16.95;10.57;;;27.20;81.80;;;;;;5084696;28;20197;-55
2022/04/15 08:13:52;;;;;;;18.20;10.95;;;27.20;81.80;;;;;;5084841;28;20017;-54
2022/04/15 08:16:20;;;;;;;17.80;10.90;;;27.20;81.80;;;;;;5084097;28;20036;-57
2022/04/15 08:18:48;;;;;;;21.05;10.48;;;27.20;81.80;;;;;;5084659;28;20032;-55
2022/04/15 08:21:15;;;;;;;15.73;10.48;;;27.20;81.60;;;;;;5084273;28;20020;-55
2022/04/15 08:23:43;;;;;;;20.98;11.45;;;27.20;81.80;;;;;;5084499;28;20253;-56
2022/04/15 08:26:10;;;;;;;16.30;10.50;;;27.20;81.60;;;;;;5084171;28;20013;-57
2022/04/15 08:28:37;;;;;;;19.30;11.13;;;27.20;81.70;;;;;;5084674;28;20031;-58
2022/04/15 08:31:03;;;;;;;22.65;10.90;;;27.20;81.70;;;;;;5084239;28;20092;-56
2022/04/15 08:33:30;;;;;;;20.50;10.82;;;27.20;81.90;;;;;;5084726;28;20035;-58
2022/04/15 08:35:57;;;;;;;19.05;10.43;;;27.10;81.90;;;;;;5084120;28;20016;-58
2022/04/15 08:38:23;;;;;;;20.38;11.07;;;27.10;81.90;;;;;;5084530;28;20032;-56
2022/04/15 08:40:53;;;;;;;21.60;11.15;;;27.10;82.10;;;;;;5084101;28;20385;-55
2022/04/15 08:43:20;;;;;;;18.75;10.45;;;27.10;82.10;;;;;;5084450;28;20228;-54
2022/04/15 08:45:47;;;;;;;18.35;10.57;;;27.10;82.20;;;;;;5083915;28;20037;-58
2022/04/15 08:48:15;;;;;;;18.13;10.13;;;27.10;82.20;;;;;;5083997;28;20261;-57
2022/04/15 08:50:43;;;;;;;17.88;9.63;;;27.10;82.20;;;;;;5084082;28;20024;-57
2022/04/15 08:53:11;;;;;;;18.55;10.88;;;27.10;82.30;;;;;;5084307;28;20033;-57
2022/04/15 08:55:38;;;;;;;20.48;10.93;;;27.10;82.20;;;;;;5083773;28;20023;-58
2022/04/15 08:58:04;;;;;;;17.30;10.50;;;27.00;82.20;;;;;;5084511;28;20067;-56
2022/04/15 09:00:32;;;;;;;17.88;10.00;;;27.10;82.30;;;;;;5083543;28;20044;-57
2022/04/15 09:02:58;;;;;;;21.15;10.63;;;27.10;82.30;;;;;;5083953;28;20301;-55
2022/04/15 09:05:28;;;;;;;19.83;10.57;;;27.00;82.30;;;;;;5083794;28;20028;-53
2022/04/15 09:08:12;;;;;;;20.05;10.80;;;27.00;82.40;;;;;;5083924;28;20123;-58
2022/04/15 09:10:42;;;;;;;19.73;10.18;;;27.00;82.50;;;;;;5087382;28;20042;-57
2022/04/15 09:13:20;;;;;;;18.00;9.95;;;27.00;82.60;;;;;;5087981;28;20036;-50
2022/04/15 09:15:47;;;;;;;24.58;11.02;;;27.10;82.70;;;;;;5087797;28;20087;-57
2022/04/15 09:18:38;;;;;;;24.17;10.82;;;27.10;82.80;;;;;;5087901;28;20082;-55
2022/04/15 09:21:22;;;;;;;23.52;10.35;;;27.10;82.80;;;;;;5087578;28;20389;-56
2022/04/15 09:23:54;;;;;;;20.38;11.20;;;27.10;82.80;;;;;;5088178;28;20060;-58
2022/04/15 09:26:21;;;;;;;;;;;27.10;83.00;;;;;;5087971;28;20370;-56
2022/04/15 09:28:48;;;;;;;26.25;11.57;;;27.10;83.10;;;;;;5087757;28;19913;-55
2022/04/15 09:31:16;;;;;;;24.48;10.73;;;27.10;83.20;;;;;;5087483;28;20033;-55
2022/04/15 09:33:57;;;;;;;22.35;10.45;;;27.00;83.10;;;;;;5087268;28;20021;-54
2022/04/15 09:36:31;;;;;;;21.15;10.63;;;27.10;83.40;;;;;;5087449;28;20028;-55
2022/04/15 09:39:14;;;;;;;20.23;11.07;;;27.00;83.50;;;;;;5087208;28;20335;-56
2022/04/15 09:41:49;;;;;;;20.17;10.68;;;27.00;83.50;;;;;;5086971;28;20035;-56
2022/04/15 09:44:16;;;;;;;19.95;10.55;;;27.00;83.70;;;;;;5087393;28;20239;-54
2022/04/15 09:46:46;;;;;;;23.63;12.25;;;27.00;83.80;;;;;;5087299;28;20032;-59
2022/04/15 09:49:13;;;;;;;20.60;10.40;;;27.00;83.80;;;;;;5086903;28;20044;-56
2022/04/15 09:51:46;;;;;;;20.20;10.40;;;27.00;83.80;;;;;;5086965;28;20040;-56
2022/04/15 09:54:23;;;;;;;17.50;10.25;;;27.00;83.90;;;;;;5085747;28;20056;-55
2022/04/15 09:56:52;;;;;;;19.23;10.43;;;27.00;83.70;;;;;;5087014;28;20029;-57
2022/04/15 09:59:23;;;;;;;22.80;11.73;;;27.00;83.60;;;;;;5087127;28;20025;-57
2022/04/15 10:02:11;;;;;;;19.15;10.75;;;27.00;83.40;;;;;;5086838;28;20316;-57
2022/04/15 10:04:38;;;;;;;19.38;10.00;;;27.00;83.30;;;;;;5086637;28;20032;-56
2022/04/15 10:07:07;;;;;;;19.23;10.07;;;26.90;83.20;;;;;;5086846;28;20016;-61
2022/04/15 10:09:38;;;;;;;18.55;10.15;;;27.00;83.40;;;;;;5086687;28;20028;-58
2022/04/15 10:12:07;;;;;;;16.42;10.77;;;27.00;83.70;;;;;;5086721;28;20025;-56
2022/04/15 10:14:35;;;;;;;18.05;10.65;;;27.00;84.10;;;;;;5086963;28;20051;-56
2022/04/15 10:17:03;;;;;;;21.50;11.48;;;26.90;84.30;;;;;;5086923;28;20016;-59
2022/04/15 10:19:29;;;;;;;19.98;10.63;;;26.90;84.50;;;;;;5086209;28;20023;-58
2022/04/15 10:21:57;;;;;;;22.85;10.77;;;27.00;84.80;;;;;;5086797;28;20154;-58
2022/04/15 10:24:26;;;;;;;21.08;10.75;;;27.00;84.80;;;;;;5086393;28;20308;-57
2022/04/15 10:27:01;;;;;;;21.30;10.70;;;26.90;84.80;;;;;;5086585;28;20031;-58
2022/04/15 10:29:28;;;;;;;18.65;11.05;;;26.90;84.90;;;;;;5086704;28;20307;-58
2022/04/15 10:31:54;;;;;;;21.92;10.95;;;26.90;84.90;;;;;;5086620;28;20048;-54
2022/04/15 10:34:22;;;;;;;20.50;10.85;;;26.90;84.80;;;;;;5086098;28;20029;-55
2022/04/15 10:36:56;;;;;;;21.38;10.52;;;26.90;84.90;;;;;;5086355;28;20020;-55
2022/04/15 10:39:27;;;;;;;19.92;11.35;;;26.90;84.80;;;;;;5086122;28;20378;-52
2022/04/15 10:41:58;;;;;;;22.00;11.48;;;26.90;84.80;;;;;;5086817;28;20029;-56
2022/04/15 10:44:41;;;;;;;21.98;11.27;;;26.90;84.80;;;;;;5086490;28;20078;-58
2022/04/15 10:47:24;;;;;;;20.02;11.48;;;26.90;84.80;;;;;;5086277;28;20205;-58
2022/04/15 10:50:03;;;;;;;20.98;11.00;;;26.90;84.80;;;;;;5085713;28;20070;-57
2022/04/15 10:52:33;;;;;;;19.92;12.10;;;26.90;84.80;;;;;;5086188;28;20040;-59
2022/04/15 10:55:00;;;;;;;23.08;11.73;;;26.90;84.80;;;;;;5085798;28;20027;-56
2022/04/15 10:57:34;;;;;;;19.92;11.77;;;26.90;84.70;;;;;;5085593;28;20138;-55
2022/04/15 11:02:47;;;;;;;22.40;12.10;;;26.90;84.70;;;;;;5086115;28;20035;-56
2022/04/15 11:05:30;;;;;;;21.40;11.75;;;26.90;84.60;;;;;;5085812;28;20028;-55
2022/04/15 11:08:17;;;;;;;21.42;11.85;;;26.90;84.60;;;;;;5085846;28;20071;-57
2022/04/15 11:10:55;;;;;;;21.08;11.60;;;26.90;84.50;;;;;;5085859;28;20017;-58
2022/04/15 11:13:24;;;;;;;23.58;12.05;;;26.90;84.50;;;;;;5085852;28;20086;-56
2022/04/15 11:16:13;;;;;;;21.67;12.23;;;26.90;84.40;;;;;;5085299;28;20032;-54
2022/04/15 11:19:02;;;;;;;23.15;12.73;;;26.90;84.30;;;;;;5085228;28;20321;-57
2022/04/15 11:21:35;;;;;;;25.77;13.57;;;26.90;84.30;;;;;;5085011;28;20066;-56
2022/04/15 11:24:08;;;;;;;22.83;12.73;;;26.90;84.30;;;;;;5085290;28;20071;-59
2022/04/15 11:26:37;;;;;;;25.73;13.77;;;26.90;84.30;;;;;;5085477;28;20052;-57
2022/04/15 11:29:06;;;;;;;25.33;14.15;;;26.90;84.30;;;;;;5085490;28;20024;-56
2022/04/15 11:31:37;;;;;;;26.95;13.70;;;26.90;84.30;;;;;;5085362;28;20024;-60
2022/04/15 11:34:07;;;;;;;23.07;13.20;;;26.90;84.30;;;;;;5081000;28;20027;-59
2022/04/15 11:36:46;;;;;;;24.33;13.63;;;26.90;84.40;;;;;;5084788;28;20323;-58
2022/04/15 11:39:14;;;;;;;23.30;13.50;;;26.90;84.40;;;;;;5085507;28;20028;-57
2022/04/15 11:41:46;;;;;;;26.58;14.57;;;26.90;84.50;;;;;;5087146;28;20078;-57
2022/04/15 11:44:14;;;;;;;25.80;13.90;;;26.90;84.50;;;;;;5115301;28;20069;-58
2022/04/15 11:46:42;;;;;;;32.03;14.27;;;26.90;84.40;;;;;;5120249;28;20383;-56
2022/04/15 11:49:31;;;;;;;24.63;13.30;;;26.90;84.50;;;;;;5114066;28;20032;-55
2022/04/15 11:51:59;;;;;;;26.75;13.20;;;26.90;84.60;;;;;;5084536;28;20095;-56
2022/04/15 11:54:38;;;;;;;33.17;13.07;;;26.90;84.70;;;;;;5084703;28;20299;-59
2022/04/15 11:57:06;;;;;;;26.40;13.13;;;26.90;84.90;;;;;;5085123;28;20287;-55
2022/04/15 11:59:44;;;;;;;30.45;13.75;;;26.90;85.10;;;;;;5084367;28;20020;-56
2022/04/15 12:02:14;;;;;;;32.58;14.20;;;26.90;85.10;;;;;;5104368;28;20043;-52
2022/04/15 12:04:57;;;;;;;34.33;14.38;;;26.90;85.10;;;;;;5104618;28;20079;-58
2022/04/15 12:07:25;;;;;;;27.95;14.05;;;26.90;85.00;;;;;;5103908;28;20036;-59
2022/04/15 12:09:53;;;;;;;30.20;14.55;;;26.90;85.00;;;;;;5102889;28;20016;-59
2022/04/15 12:12:25;;;;;;;28.15;14.13;;;26.90;85.00;;;;;;5102584;28;20036;-58
2022/04/15 12:14:55;;;;;;;28.77;14.10;;;26.90;84.90;;;;;;5101253;28;20339;-58
2022/04/15 12:17:24;;;;;;;22.92;14.07;;;26.90;84.90;;;;;;5101041;28;20031;-57
2022/04/15 12:19:51;;;;;;;27.23;14.38;;;26.90;84.90;;;;;;5101182;28;20053;-58
2022/04/15 12:22:19;;;;;;;24.25;14.27;;;26.90;84.90;;;;;;5101546;28;20501;-58
2022/04/15 12:24:46;;;;;;;25.92;13.95;;;26.90;85.00;;;;;;5102400;28;20032;-58
2022/04/15 12:27:17;;;;;;;29.73;14.25;;;26.90;85.00;;;;;;5102746;28;20034;-58
2022/04/15 12:29:49;;;;;;;23.13;13.85;;;26.90;84.90;;;;;;5104763;28;20024;-58
2022/04/15 12:32:35;;;;;;;26.65;14.10;;;26.90;84.90;;;;;;5104660;28;20269;-56
2022/04/15 12:35:01;;;;;;;22.58;13.35;;;26.90;84.80;;;;;;5104443;28;20019;-59
2022/04/15 12:37:39;;;;;;;25.95;13.27;;;26.90;84.80;;;;;;5104264;28;20042;-59
2022/04/15 12:40:19;;;;;;;20.52;13.73;;;26.90;84.60;;;;;;5104651;28;20031;-59